createdAt,value
2024-04-06T00:01:12.366Z,17
2024-04-06T00:02:52.166Z,16.98
2024-04-06T00:04:31.916Z,16.95
2024-04-06T00:06:11.673Z,16.95
2024-04-06T00:07:51.451Z,16.95
2024-04-06T00:09:31.200Z,16.94
2024-04-06T00:11:10.989Z,16.94
2024-04-06T00:12:50.765Z,16.92
2024-04-06T00:14:30.515Z,16.92
2024-04-06T00:16:10.294Z,16.9
2024-04-06T00:17:50.060Z,16.91
2024-04-06T00:19:29.819Z,16.89
2024-04-06T00:21:09.586Z,16.89
2024-04-06T00:22:49.362Z,16.87
2024-04-06T00:24:29.117Z,16.87
2024-04-06T00:26:08.903Z,16.87
2024-04-06T00:29:28.430Z,16.84
2024-04-06T00:31:08.202Z,16.84
2024-04-06T00:32:47.975Z,16.83
2024-04-06T00:34:27.732Z,16.82
2024-04-06T00:36:07.491Z,16.83
2024-04-06T00:37:47.263Z,16.83
2024-04-06T00:39:27.038Z,16.82
2024-04-06T00:41:06.792Z,16.81
2024-04-06T00:42:46.564Z,16.79
2024-04-06T00:44:26.335Z,16.78
2024-04-06T00:46:06.129Z,16.79
2024-04-06T00:47:45.875Z,16.79
2024-04-06T00:49:25.636Z,16.77
2024-04-06T00:51:05.393Z,16.75
2024-04-06T00:52:45.167Z,16.76
2024-04-06T00:54:24.935Z,16.74
2024-04-06T00:56:04.701Z,16.71
2024-04-06T00:57:44.477Z,16.73
2024-04-06T00:59:24.244Z,16.7
2024-04-06T01:01:04.006Z,16.7
2024-04-06T01:02:43.782Z,16.7
2024-04-06T01:04:23.541Z,16.69
2024-04-06T01:06:03.305Z,16.68
2024-04-06T01:07:43.082Z,16.66
2024-04-06T01:09:22.840Z,16.66
2024-04-06T01:11:02.616Z,16.65
2024-04-06T01:12:42.386Z,16.64
2024-04-06T01:14:22.141Z,16.62
2024-04-06T01:16:01.916Z,16.62
2024-04-06T01:17:41.684Z,16.61
2024-04-06T01:19:21.440Z,16.61
2024-04-06T01:21:01.214Z,16.59
2024-04-06T01:22:40.985Z,16.58
2024-04-06T01:24:20.778Z,16.57
2024-04-06T01:26:00.522Z,16.57
2024-04-06T01:27:40.279Z,16.54
2024-04-06T01:29:20.073Z,16.54
2024-04-06T01:30:59.826Z,16.54
2024-04-06T01:32:39.577Z,16.51
2024-04-06T01:34:19.355Z,16.5
2024-04-06T01:35:59.119Z,16.48
2024-04-06T01:37:38.896Z,16.48
2024-04-06T01:39:18.662Z,16.46
2024-04-06T01:40:58.425Z,16.45
2024-04-06T01:42:38.205Z,16.45
2024-04-06T01:44:17.976Z,16.44
2024-04-06T01:45:57.744Z,16.42
2024-04-06T01:47:37.500Z,16.42
2024-04-06T01:49:17.269Z,16.41
2024-04-06T01:52:36.804Z,16.37
2024-04-06T01:54:16.576Z,16.36
2024-04-06T01:55:56.327Z,16.35
2024-04-06T01:57:36.091Z,16.34
2024-04-06T01:59:15.871Z,16.33
2024-04-06T02:00:55.635Z,16.31
2024-04-06T02:02:35.396Z,16.31
2024-04-06T02:04:15.177Z,16.29
2024-04-06T02:05:54.933Z,16.29
2024-04-06T02:07:34.705Z,16.25
2024-04-06T02:09:14.484Z,16.25
2024-04-06T02:10:54.248Z,16.24
2024-04-06T02:12:34.025Z,16.21
2024-04-06T02:14:13.770Z,16.2
2024-04-06T02:15:53.561Z,16.21
2024-04-06T02:17:33.303Z,16.2
2024-04-06T02:19:13.094Z,16.19
2024-04-06T02:20:52.845Z,16.17
2024-04-06T02:22:32.618Z,16.16
2024-04-06T02:24:12.385Z,16.14
2024-04-06T02:25:52.154Z,16.14
2024-04-06T02:27:31.917Z,16.12
2024-04-06T02:29:11.686Z,16.09
2024-04-06T02:30:51.493Z,16.09
2024-04-06T02:32:31.228Z,16.07
2024-04-06T02:34:10.971Z,16.08
2024-04-06T02:35:50.750Z,16.04
2024-04-06T02:37:30.517Z,16.03
2024-04-06T02:39:10.288Z,16.02
2024-04-06T02:40:50.050Z,16.02
2024-04-06T02:42:29.825Z,16
2024-04-06T02:44:09.594Z,16
2024-04-06T02:45:49.356Z,15.99
2024-04-06T02:47:29.131Z,15.98
2024-04-06T02:49:08.892Z,15.95
2024-04-06T02:50:48.659Z,15.95
2024-04-06T02:52:28.435Z,15.94
2024-04-06T02:54:08.205Z,15.92
2024-04-06T02:55:47.963Z,15.9
2024-04-06T02:57:27.731Z,15.9
2024-04-06T02:59:07.500Z,15.9
2024-04-06T03:00:47.257Z,15.89
2024-04-06T03:02:27.023Z,15.88
2024-04-06T03:04:06.810Z,15.86
2024-04-06T03:05:46.567Z,15.84
2024-04-06T03:07:26.340Z,15.84
2024-04-06T03:09:06.106Z,15.82
2024-04-06T03:10:45.871Z,15.82
2024-04-06T03:12:25.646Z,15.81
2024-04-06T03:14:05.420Z,15.78
2024-04-06T03:15:45.160Z,15.78
2024-04-06T03:17:24.939Z,15.77
2024-04-06T03:19:04.709Z,15.75
2024-04-06T03:20:44.487Z,15.75
2024-04-06T03:22:24.238Z,15.74
2024-04-06T03:24:04.023Z,15.73
2024-04-06T03:25:43.781Z,15.71
2024-04-06T03:27:23.541Z,15.71
2024-04-06T03:29:03.320Z,15.7
2024-04-06T03:30:43.089Z,15.69
2024-04-06T03:32:22.836Z,15.69
2024-04-06T03:34:02.611Z,15.66
2024-04-06T03:35:42.372Z,15.65
2024-04-06T03:37:22.164Z,15.65
2024-04-06T03:39:01.917Z,15.63
2024-04-06T03:40:41.697Z,15.63
2024-04-06T03:42:21.439Z,15.62
2024-04-06T03:44:01.226Z,15.6
2024-04-06T03:45:40.971Z,15.59
2024-04-06T03:49:00.519Z,15.58
2024-04-06T03:50:40.269Z,15.57
2024-04-06T03:52:20.046Z,15.54
2024-04-06T03:53:59.824Z,15.55
2024-04-06T03:55:39.606Z,15.52
2024-04-06T03:57:19.349Z,15.53
2024-04-06T03:58:59.122Z,15.5
2024-04-06T04:00:38.900Z,15.5
2024-04-06T04:02:18.649Z,15.48
2024-04-06T04:03:58.431Z,15.48
2024-04-06T04:05:38.196Z,15.47
2024-04-06T04:07:17.970Z,15.46
2024-04-06T04:08:57.736Z,15.43
2024-04-06T04:10:37.518Z,15.45
2024-04-06T04:12:17.269Z,15.41
2024-04-06T04:13:57.030Z,15.42
2024-04-06T04:15:36.815Z,15.45
2024-04-06T04:17:16.563Z,15.47
2024-04-06T04:18:56.333Z,15.47
2024-04-06T04:20:36.098Z,15.48
2024-04-06T04:22:15.872Z,15.47
2024-04-06T04:23:55.643Z,15.52
2024-04-06T04:25:35.419Z,15.51
2024-04-06T04:27:15.184Z,15.51
2024-04-06T04:28:54.947Z,15.51
2024-04-06T04:30:34.714Z,15.53
2024-04-06T04:32:14.483Z,15.53
2024-04-06T04:33:54.240Z,15.56
2024-04-06T04:35:34.022Z,15.55
2024-04-06T04:37:13.775Z,15.56
2024-04-06T04:38:53.538Z,15.56
2024-04-06T04:40:33.309Z,15.57
2024-04-06T04:42:13.079Z,15.57
2024-04-06T04:43:52.845Z,15.57
2024-04-06T04:45:32.615Z,15.6
2024-04-06T04:47:12.383Z,15.56
2024-04-06T04:48:52.155Z,15.58
2024-04-06T04:50:31.925Z,15.63
2024-04-06T04:52:11.709Z,15.57
2024-04-06T04:53:51.453Z,15.59
2024-04-06T04:55:31.235Z,15.59
2024-04-06T04:57:11.005Z,15.58
2024-04-06T04:58:50.770Z,15.59
2024-04-06T05:00:30.527Z,15.58
2024-04-06T05:02:10.303Z,15.58
2024-04-06T05:03:50.068Z,15.62
2024-04-06T05:05:29.873Z,15.57
2024-04-06T05:07:09.601Z,15.59
2024-04-06T05:08:49.385Z,15.58
2024-04-06T05:10:29.166Z,15.59
2024-04-06T05:12:08.935Z,15.59
2024-04-06T05:13:48.694Z,15.58
2024-04-06T05:15:28.459Z,15.58
2024-04-06T05:17:08.231Z,15.62
2024-04-06T05:18:48.014Z,15.59
2024-04-06T05:20:27.788Z,15.61
2024-04-06T05:22:07.552Z,15.61
2024-04-06T05:23:47.321Z,15.61
2024-04-06T05:25:27.093Z,15.61
2024-04-06T05:27:06.865Z,15.61
2024-04-06T05:28:46.649Z,15.62
2024-04-06T05:30:26.400Z,15.63
2024-04-06T05:32:06.165Z,15.63
2024-04-06T05:33:45.937Z,15.65
2024-04-06T05:35:25.700Z,15.62
2024-04-06T05:37:05.484Z,15.64
2024-04-06T05:38:45.261Z,15.63
2024-04-06T05:40:25.011Z,15.62
2024-04-06T05:42:04.790Z,15.61
2024-04-06T05:43:44.572Z,15.65
2024-04-06T05:45:24.330Z,15.64
2024-04-06T05:47:04.119Z,15.64
2024-04-06T05:48:43.879Z,15.64
2024-04-06T05:50:23.657Z,15.66
2024-04-06T05:52:03.424Z,15.66
2024-04-06T05:53:43.208Z,15.65
2024-04-06T05:55:22.955Z,15.68
2024-04-06T05:57:02.731Z,15.65
2024-04-06T05:58:42.495Z,15.68
2024-04-06T06:00:22.256Z,15.68
2024-04-06T06:02:02.042Z,15.7
2024-04-06T06:03:41.817Z,15.72
2024-04-06T06:05:21.588Z,15.71
2024-04-06T06:07:01.348Z,15.71
2024-04-06T06:08:41.120Z,15.74
2024-04-06T06:10:20.883Z,15.73
2024-04-06T06:12:00.659Z,15.72
2024-04-06T06:13:40.450Z,15.76
2024-04-06T06:15:20.200Z,15.77
2024-04-06T06:16:59.981Z,15.8
2024-04-06T06:18:39.742Z,15.81
2024-04-06T06:21:59.285Z,15.83
2024-04-06T06:23:39.073Z,15.85
2024-04-06T06:25:18.812Z,15.89
2024-04-06T06:26:58.594Z,15.89
2024-04-06T06:28:38.368Z,15.91
2024-04-06T06:30:18.139Z,15.91
2024-04-06T06:31:57.900Z,15.93
2024-04-06T06:33:37.664Z,15.97
2024-04-06T06:35:17.444Z,15.95
2024-04-06T06:36:57.224Z,16.01
2024-04-06T06:38:37.000Z,16.02
2024-04-06T06:40:16.753Z,16.03
2024-04-06T06:41:56.530Z,16.03
2024-04-06T06:43:36.315Z,16.04
2024-04-06T06:45:16.060Z,16.08
2024-04-06T06:46:55.833Z,16.09
2024-04-06T06:48:35.614Z,16.09
2024-04-06T06:50:15.388Z,16.14
2024-04-06T06:51:55.150Z,16.15
2024-04-06T06:53:34.918Z,16.19
2024-04-06T06:55:14.689Z,16.18
2024-04-06T06:56:54.462Z,16.21
2024-04-06T06:58:34.230Z,16.2
2024-04-06T07:00:14.007Z,16.26
2024-04-06T07:01:53.779Z,16.28
2024-04-06T07:03:33.557Z,16.29
2024-04-06T07:05:13.313Z,16.31
2024-04-06T07:06:53.076Z,16.33
2024-04-06T07:08:32.856Z,16.37
2024-04-06T07:10:12.611Z,16.37
2024-04-06T07:11:52.381Z,16.42
2024-04-06T07:13:32.164Z,16.43
2024-04-06T07:15:11.951Z,16.45
2024-04-06T07:16:51.703Z,16.48
2024-04-06T07:18:31.483Z,16.52
2024-04-06T07:20:11.249Z,16.53
2024-04-06T07:21:51.024Z,16.58
2024-04-06T07:23:30.790Z,16.57
2024-04-06T07:25:10.549Z,16.62
2024-04-06T07:26:50.360Z,16.65
2024-04-06T07:28:30.103Z,16.68
2024-04-06T07:30:09.874Z,16.7
2024-04-06T07:31:49.643Z,16.74
2024-04-06T07:33:29.418Z,16.77
2024-04-06T07:35:09.195Z,16.81
2024-04-06T07:36:48.951Z,16.83
2024-04-06T07:38:28.728Z,16.87
2024-04-06T07:40:08.509Z,16.89
2024-04-06T07:41:48.273Z,16.92
2024-04-06T07:43:28.034Z,16.98
2024-04-06T07:45:07.806Z,17
2024-04-06T07:46:47.571Z,17.06
2024-04-06T07:48:27.353Z,17.08
2024-04-06T07:50:07.106Z,17.1
2024-04-06T07:51:46.880Z,17.15
2024-04-06T07:53:26.657Z,17.19
2024-04-06T07:55:06.442Z,17.21
2024-04-06T07:56:46.204Z,17.23
2024-04-06T07:58:25.976Z,17.25
2024-04-06T08:00:05.733Z,17.29
2024-04-06T08:01:45.512Z,17.35
2024-04-06T08:03:25.283Z,17.39
2024-04-06T08:05:05.043Z,17.42
2024-04-06T08:06:44.824Z,17.45
2024-04-06T08:08:24.609Z,17.46
2024-04-06T08:10:04.361Z,17.54
2024-04-06T08:11:44.135Z,17.57
2024-04-06T08:13:23.896Z,17.6
2024-04-06T08:15:03.666Z,17.68
2024-04-06T08:16:43.446Z,17.69
2024-04-06T08:18:23.202Z,17.75
2024-04-06T08:20:03.010Z,17.78
2024-04-06T08:21:42.747Z,17.81
2024-04-06T08:23:22.529Z,17.85
2024-04-06T08:25:02.313Z,17.91
2024-04-06T08:26:42.098Z,17.95
2024-04-06T08:28:21.850Z,17.96
2024-04-06T08:30:01.607Z,18.04
2024-04-06T08:31:41.382Z,18.08
2024-04-06T08:33:21.156Z,18.11
2024-04-06T08:35:00.924Z,18.17
2024-04-06T08:36:40.710Z,18.2
2024-04-06T08:38:20.459Z,18.24
2024-04-06T08:40:00.234Z,18.31
2024-04-06T08:41:40.001Z,18.33
2024-04-06T08:43:19.770Z,18.36
2024-04-06T08:44:59.555Z,18.41
2024-04-06T08:46:39.312Z,18.46
2024-04-06T08:48:19.076Z,18.51
2024-04-06T08:49:58.877Z,18.54
2024-04-06T08:51:38.615Z,18.59
2024-04-06T08:53:18.401Z,18.65
2024-04-06T08:54:58.162Z,18.68
2024-04-06T08:56:37.943Z,18.71
2024-04-06T08:58:17.700Z,18.77
2024-04-06T08:59:57.490Z,18.83
2024-04-06T09:01:37.253Z,18.89
2024-04-06T09:03:17.019Z,18.93
2024-04-06T09:04:56.783Z,18.99
2024-04-06T09:06:36.562Z,19
2024-04-06T09:08:16.324Z,19.04
2024-04-06T09:09:56.096Z,19.1
2024-04-06T09:11:35.863Z,19.12
2024-04-06T09:13:15.638Z,19.18
2024-04-06T09:14:55.422Z,19.23
2024-04-06T09:16:35.181Z,19.27
2024-04-06T09:18:14.945Z,19.29
2024-04-06T09:19:54.713Z,19.29
2024-04-06T09:21:34.499Z,19.32
2024-04-06T09:23:14.257Z,19.33
2024-04-06T09:24:54.041Z,19.32
2024-04-06T09:26:33.796Z,19.35
2024-04-06T09:28:13.588Z,19.4
2024-04-06T09:29:53.342Z,19.45
2024-04-06T09:31:33.096Z,19.56
2024-04-06T09:33:12.879Z,19.62
2024-04-06T09:34:52.634Z,19.7
2024-04-06T09:36:32.426Z,19.83
2024-04-06T09:38:12.191Z,19.89
2024-04-06T09:39:51.955Z,19.93
2024-04-06T09:41:31.747Z,20.01
2024-04-06T09:43:11.523Z,20.04
2024-04-06T09:44:51.284Z,20.12
2024-04-06T09:46:31.039Z,20.19
2024-04-06T09:48:10.830Z,20.26
2024-04-06T09:49:50.591Z,20.29
2024-04-06T09:51:30.350Z,20.34
2024-04-06T09:53:10.121Z,20.4
2024-04-06T09:54:49.899Z,20.44
2024-04-06T09:56:29.664Z,20.51
2024-04-06T09:58:09.446Z,20.54
2024-04-06T09:59:49.212Z,20.61
2024-04-06T10:01:28.976Z,20.65
2024-04-06T10:03:08.758Z,20.7
2024-04-06T10:04:48.512Z,20.76
2024-04-06T10:06:28.303Z,20.8
2024-04-06T10:08:08.067Z,20.85
2024-04-06T10:09:47.859Z,20.92
2024-04-06T10:11:27.607Z,20.94
2024-04-06T10:13:07.377Z,20.98
2024-04-06T10:14:47.143Z,21.03
2024-04-06T10:16:26.925Z,21.08
2024-04-06T10:18:06.673Z,21.15
2024-04-06T10:19:46.453Z,21.2
2024-04-06T10:21:26.226Z,21.23
2024-04-06T10:23:06.019Z,21.3
2024-04-06T10:24:45.774Z,21.31
2024-04-06T10:26:25.526Z,21.36
2024-04-06T10:28:05.309Z,21.4
2024-04-06T10:29:45.091Z,21.44
2024-04-06T10:31:24.853Z,21.45
2024-04-06T10:33:04.617Z,21.52
2024-04-06T10:34:44.391Z,21.56
2024-04-06T10:36:24.169Z,21.6
2024-04-06T10:38:03.930Z,21.64
2024-04-06T10:39:43.710Z,21.66
2024-04-06T10:41:23.497Z,21.7
2024-04-06T10:43:03.240Z,21.77
2024-04-06T10:44:43.017Z,21.8
2024-04-06T10:46:22.775Z,21.84
2024-04-06T10:48:02.549Z,21.89
2024-04-06T10:49:42.315Z,21.93
2024-04-06T10:51:22.098Z,21.98
2024-04-06T10:53:01.855Z,21.99
2024-04-06T10:54:41.637Z,22.02
2024-04-06T10:56:21.394Z,22.06
2024-04-06T10:58:01.181Z,22.11
2024-04-06T10:59:40.960Z,22.15
2024-04-06T11:01:20.719Z,22.19
2024-04-06T11:03:00.484Z,22.22
2024-04-06T11:04:40.263Z,22.23
2024-04-06T11:06:20.025Z,22.29
2024-04-06T11:07:59.788Z,22.32
2024-04-06T11:09:39.571Z,22.38
2024-04-06T11:11:19.344Z,22.4
2024-04-06T11:12:59.099Z,22.45
2024-04-06T11:14:38.879Z,22.46
2024-04-06T11:16:18.640Z,22.54
2024-04-06T11:17:58.416Z,22.56
2024-04-06T11:19:38.188Z,22.62
2024-04-06T11:21:17.974Z,22.63
2024-04-06T11:22:57.735Z,22.69
2024-04-06T11:24:37.504Z,22.72
2024-04-06T11:26:17.273Z,22.75
2024-04-06T11:27:57.036Z,22.79
2024-04-06T11:29:36.808Z,22.84
2024-04-06T11:31:16.581Z,22.89
2024-04-06T11:32:56.348Z,22.91
2024-04-06T11:34:36.113Z,22.97
2024-04-06T11:36:15.888Z,23.02
2024-04-06T11:37:55.675Z,23.06
2024-04-06T11:39:35.445Z,23.08
2024-04-06T11:41:15.201Z,23.12
2024-04-06T11:42:54.975Z,23.16
2024-04-06T11:44:34.737Z,23.21
2024-04-06T11:46:14.526Z,23.24
2024-04-06T11:47:54.272Z,23.28
2024-04-06T11:49:34.039Z,23.34
2024-04-06T11:51:13.815Z,23.38
2024-04-06T11:52:53.581Z,23.42
2024-04-06T11:54:33.376Z,23.44
2024-04-06T11:56:13.136Z,23.49
2024-04-06T11:57:52.903Z,23.52
2024-04-06T11:59:32.669Z,23.57
2024-04-06T12:01:12.440Z,23.63
2024-04-06T12:02:52.208Z,23.66
2024-04-06T12:04:31.986Z,23.7
2024-04-06T12:06:11.756Z,23.75
2024-04-06T12:07:51.521Z,23.76
2024-04-06T12:09:31.306Z,23.81
2024-04-06T12:11:11.060Z,23.86
2024-04-06T12:12:50.982Z,23.89
2024-04-06T12:14:30.754Z,23.95
2024-04-06T12:16:10.546Z,23.97
2024-04-06T12:17:50.432Z,24.01
2024-04-06T12:19:30.109Z,24.04
2024-04-06T12:21:09.678Z,24.1
2024-04-06T12:22:49.450Z,24.14
2024-04-06T12:24:29.239Z,24.17
2024-04-06T12:26:09.004Z,24.21
2024-04-06T12:27:48.758Z,24.23
2024-04-06T12:29:28.528Z,24.28
2024-04-06T12:31:08.313Z,24.31
2024-04-06T12:32:48.110Z,24.37
2024-04-06T12:34:27.842Z,24.4
2024-04-06T12:36:07.625Z,24.42
2024-04-06T12:37:47.387Z,24.46
2024-04-06T12:39:27.153Z,24.5
2024-04-06T12:41:06.933Z,24.53
2024-04-06T12:42:46.696Z,24.56
2024-04-06T12:44:26.486Z,24.59
2024-04-06T12:46:06.240Z,24.62
2024-04-06T12:47:46.005Z,24.64
2024-04-06T12:49:25.808Z,24.69
2024-04-06T12:51:05.539Z,24.71
2024-04-06T12:52:45.333Z,24.75
2024-04-06T12:54:25.097Z,24.77
2024-04-06T12:56:04.859Z,24.82
2024-04-06T12:57:44.624Z,24.84
2024-04-06T12:59:24.412Z,24.87
2024-04-06T13:01:04.161Z,24.91
2024-04-06T13:02:43.936Z,24.93
2024-04-06T13:04:23.707Z,24.95
2024-04-06T13:06:03.483Z,25.02
2024-04-06T13:07:43.257Z,25.04
2024-04-06T13:09:23.026Z,25.06
2024-04-06T13:11:02.792Z,25.11
2024-04-06T13:12:42.556Z,25.13
2024-04-06T13:14:22.329Z,25.15
2024-04-06T13:16:02.098Z,25.18
2024-04-06T13:17:41.870Z,25.2
2024-04-06T13:19:21.657Z,25.26
2024-04-06T13:21:01.444Z,25.28
2024-04-06T13:22:41.196Z,25.32
2024-04-06T13:24:20.949Z,25.36
2024-04-06T13:26:00.734Z,25.38
2024-04-06T13:27:40.510Z,25.39
2024-04-06T13:29:20.269Z,25.44
2024-04-06T13:31:00.043Z,25.47
2024-04-06T13:34:19.589Z,25.54
2024-04-06T13:35:59.346Z,25.54
2024-04-06T13:37:39.123Z,25.58
2024-04-06T13:39:18.891Z,25.6
2024-04-06T13:40:58.668Z,25.65
2024-04-06T13:42:38.432Z,25.68
2024-04-06T13:44:18.210Z,25.69
2024-04-06T13:45:57.961Z,25.71
2024-04-06T13:47:37.743Z,25.75
2024-04-06T13:49:17.517Z,25.79
2024-04-06T13:50:57.289Z,25.82
2024-04-06T13:52:37.059Z,25.82
2024-04-06T13:54:16.820Z,25.88
2024-04-06T13:55:56.598Z,25.9
2024-04-06T13:57:36.365Z,25.93
2024-04-06T13:59:16.131Z,25.98
2024-04-06T14:00:55.907Z,25.97
2024-04-06T14:02:35.671Z,26.04
2024-04-06T14:04:15.448Z,26.05
2024-04-06T14:05:55.222Z,26.09
2024-04-06T14:07:35.000Z,26.13
2024-04-06T14:09:14.773Z,26.14
2024-04-06T14:10:54.521Z,26.18
2024-04-06T14:12:34.305Z,26.19
2024-04-06T14:14:14.067Z,26.21
2024-04-06T14:15:53.834Z,26.25
2024-04-06T14:17:33.595Z,26.28
2024-04-06T14:19:13.378Z,26.29
2024-04-06T14:20:53.152Z,26.29
2024-04-06T14:22:32.963Z,26.34
2024-04-06T14:24:12.701Z,26.37
2024-04-06T14:25:52.472Z,26.38
2024-04-06T14:27:32.236Z,26.43
2024-04-06T14:29:12.009Z,26.43
2024-04-06T14:30:51.774Z,26.45
2024-04-06T14:32:31.530Z,26.49
2024-04-06T14:34:11.313Z,26.52
2024-04-06T14:35:51.100Z,26.54
2024-04-06T14:37:30.871Z,26.55
2024-04-06T14:39:10.625Z,26.57
2024-04-06T14:40:50.389Z,26.59
2024-04-06T14:42:30.175Z,26.63
2024-04-06T14:44:09.936Z,26.63
2024-04-06T14:45:49.721Z,26.65
2024-04-06T14:47:29.467Z,26.69
2024-04-06T14:49:09.248Z,26.68
2024-04-06T14:50:49.017Z,26.73
2024-04-06T14:52:28.788Z,26.74
2024-04-06T14:54:08.553Z,26.76
2024-04-06T14:55:48.339Z,26.77
2024-04-06T14:57:28.112Z,26.79
2024-04-06T14:59:07.872Z,26.8
2024-04-06T15:00:47.635Z,26.81
2024-04-06T15:02:27.416Z,26.87
2024-04-06T15:04:07.165Z,26.88
2024-04-06T15:05:46.948Z,26.88
2024-04-06T15:07:26.719Z,26.9
2024-04-06T15:09:06.498Z,26.93
2024-04-06T15:10:46.263Z,26.94
2024-04-06T15:14:05.806Z,26.98
2024-04-06T15:15:45.563Z,27
2024-04-06T15:17:25.327Z,27.01
2024-04-06T15:19:05.113Z,27.02
2024-04-06T15:20:44.876Z,27.06
2024-04-06T15:22:24.661Z,27.06
2024-04-06T15:24:04.425Z,27.08
2024-04-06T15:25:44.192Z,27.12
2024-04-06T15:27:23.965Z,27.12
2024-04-06T15:29:03.744Z,27.12
2024-04-06T15:30:43.493Z,27.15
2024-04-06T15:32:23.286Z,27.17
2024-04-06T15:34:03.049Z,27.18
2024-04-06T15:35:42.814Z,27.19
2024-04-06T15:37:22.580Z,27.22
2024-04-06T15:39:02.369Z,27.23
2024-04-06T15:40:42.137Z,27.25
2024-04-06T15:42:21.908Z,27.22
2024-04-06T15:44:01.677Z,27.26
2024-04-06T15:45:41.440Z,27.28
2024-04-06T15:47:21.205Z,27.27
2024-04-06T15:49:00.981Z,27.29
2024-04-06T15:50:40.745Z,27.29
2024-04-06T15:52:20.530Z,27.34
2024-04-06T15:54:00.300Z,27.34
2024-04-06T15:55:40.080Z,27.35
2024-04-06T15:57:19.842Z,27.36
2024-04-06T15:58:59.608Z,27.39
2024-04-06T16:00:39.402Z,27.39
2024-04-06T16:02:19.150Z,27.4
2024-04-06T16:03:58.913Z,27.42
2024-04-06T16:07:18.449Z,27.41
2024-04-06T16:08:58.251Z,27.44
2024-04-06T16:10:38.027Z,27.43
2024-04-06T16:12:17.767Z,27.42
2024-04-06T16:13:57.547Z,27.42
2024-04-06T16:17:17.080Z,27.42
2024-04-06T16:18:56.850Z,27.43
2024-04-06T16:20:36.619Z,27.46
2024-04-06T16:22:16.397Z,27.43
2024-04-06T16:23:56.161Z,27.42
2024-04-06T16:25:35.931Z,27.41
2024-04-06T16:27:15.707Z,27.43
2024-04-06T16:28:55.473Z,27.4
2024-04-06T16:30:35.234Z,27.4
2024-04-06T16:32:15.014Z,27.39
2024-04-06T16:33:54.778Z,27.38
2024-04-06T16:35:34.568Z,27.33
2024-04-06T16:37:14.314Z,27.31
2024-04-06T16:38:54.102Z,27.29
2024-04-06T16:40:33.883Z,27.26
2024-04-06T16:42:13.644Z,27.26
2024-04-06T16:43:53.399Z,27.22
2024-04-06T16:45:33.193Z,27.21
2024-04-06T16:47:12.966Z,27.22
2024-04-06T16:48:52.732Z,27.21
2024-04-06T16:50:32.475Z,27.2
2024-04-06T16:52:12.251Z,27.19
2024-04-06T16:53:52.026Z,27.2
2024-04-06T16:55:31.798Z,27.17
2024-04-06T16:57:11.579Z,27.16
2024-04-06T16:58:51.332Z,27.15
2024-04-06T17:00:31.116Z,27.15
2024-04-06T17:02:10.885Z,27.13
2024-04-06T17:03:50.659Z,27.11
2024-04-06T17:05:30.420Z,27.08
2024-04-06T17:07:10.196Z,27.07
2024-04-06T17:08:49.973Z,27.05
2024-04-06T17:10:29.731Z,27.02
2024-04-06T17:12:09.509Z,27.01
2024-04-06T17:13:49.281Z,26.98
2024-04-06T17:15:29.047Z,26.96
2024-04-06T17:17:08.826Z,26.92
2024-04-06T17:18:48.581Z,26.87
2024-04-06T17:20:28.359Z,26.85
2024-04-06T17:22:08.116Z,26.8
2024-04-06T17:23:47.911Z,26.75
2024-04-06T17:25:27.664Z,26.7
2024-04-06T17:27:07.441Z,26.67
2024-04-06T17:28:47.195Z,26.62
2024-04-06T17:30:26.960Z,26.55
2024-04-06T17:32:06.752Z,26.49
2024-04-06T17:33:46.500Z,26.47
2024-04-06T17:35:26.260Z,26.42
2024-04-06T17:37:06.042Z,26.39
2024-04-06T17:38:45.813Z,26.32
2024-04-06T17:40:25.582Z,26.3
2024-04-06T17:42:05.346Z,26.24
2024-04-06T17:43:45.124Z,26.22
2024-04-06T17:45:24.880Z,26.18
2024-04-06T17:47:04.655Z,26.15
2024-04-06T17:48:44.408Z,26.12
2024-04-06T17:50:24.197Z,26.04
2024-04-06T17:52:03.953Z,26.02
2024-04-06T17:53:43.715Z,25.99
2024-04-06T17:55:23.484Z,25.93
2024-04-06T17:57:03.266Z,25.89
2024-04-06T17:58:43.028Z,25.86
2024-04-06T18:00:22.797Z,25.81
2024-04-06T18:02:02.559Z,25.78
2024-04-06T18:03:42.312Z,25.74
2024-04-06T18:05:22.086Z,25.72
2024-04-06T18:07:01.854Z,25.66
2024-04-06T18:08:41.642Z,25.61
2024-04-06T18:10:21.396Z,25.57
2024-04-06T18:12:01.150Z,25.53
2024-04-06T18:13:40.926Z,25.48
2024-04-06T18:15:20.692Z,25.42
2024-04-06T18:17:00.458Z,25.35
2024-04-06T18:18:40.233Z,25.29
2024-04-06T18:20:19.992Z,25.26
2024-04-06T18:21:59.767Z,25.2
2024-04-06T18:23:39.562Z,25.15
2024-04-06T18:25:19.302Z,25.1
2024-04-06T18:26:59.073Z,25.05
2024-04-06T18:28:38.834Z,24.98
2024-04-06T18:30:18.616Z,24.93
2024-04-06T18:31:58.372Z,24.89
2024-04-06T18:33:38.156Z,24.82
2024-04-06T18:35:17.932Z,24.79
2024-04-06T18:36:57.685Z,24.73
2024-04-06T18:38:37.454Z,24.69
2024-04-06T18:40:17.217Z,24.64
2024-04-06T18:41:56.990Z,24.6
2024-04-06T18:43:36.735Z,24.54
2024-04-06T18:45:16.499Z,24.49
2024-04-06T18:46:56.282Z,24.46
2024-04-06T18:48:36.047Z,24.41
2024-04-06T18:50:15.811Z,24.37
2024-04-06T18:51:55.581Z,24.3
2024-04-06T18:53:35.348Z,24.27
2024-04-06T18:55:15.122Z,24.24
2024-04-06T18:56:54.886Z,24.18
2024-04-06T18:58:34.660Z,24.13
2024-04-06T19:00:14.418Z,24.1
2024-04-06T19:01:54.193Z,24.05
2024-04-06T19:03:33.990Z,23.99
2024-04-06T19:05:13.725Z,23.96
2024-04-06T19:06:53.491Z,23.92
2024-04-06T19:08:33.266Z,23.89
2024-04-06T19:10:13.026Z,23.83
2024-04-06T19:11:52.793Z,23.78
2024-04-06T19:13:32.579Z,23.76
2024-04-06T19:15:12.327Z,23.7
2024-04-06T19:16:52.102Z,23.67
2024-04-06T19:18:31.880Z,23.62
2024-04-06T19:20:11.643Z,23.59
2024-04-06T19:21:51.413Z,23.55
2024-04-06T19:23:31.174Z,23.52
2024-04-06T19:25:10.938Z,23.48
2024-04-06T19:26:50.703Z,23.43
2024-04-06T19:28:30.481Z,23.39
2024-04-06T19:30:10.243Z,23.36
2024-04-06T19:31:50.010Z,23.31
2024-04-06T19:33:29.786Z,23.29
2024-04-06T19:35:09.538Z,23.25
2024-04-06T19:36:49.303Z,23.21
2024-04-06T19:38:29.082Z,23.16
2024-04-06T19:40:08.857Z,23.12
2024-04-06T19:41:48.627Z,23.11
2024-04-06T19:43:28.379Z,23.06
2024-04-06T19:45:08.174Z,23.02
2024-04-06T19:46:47.913Z,22.99
2024-04-06T19:48:27.688Z,22.96
2024-04-06T19:50:07.452Z,22.92
2024-04-06T19:51:47.214Z,22.88
2024-04-06T19:53:26.992Z,22.84
2024-04-06T19:55:06.750Z,22.82
2024-04-06T19:56:46.537Z,22.76
2024-04-06T19:58:26.299Z,22.73
2024-04-06T20:00:06.070Z,22.71
2024-04-06T20:01:45.838Z,22.67
2024-04-06T20:03:25.595Z,22.63
2024-04-06T20:05:05.358Z,22.6
2024-04-06T20:06:45.140Z,22.57
2024-04-06T20:08:24.906Z,22.54
2024-04-06T20:10:04.669Z,22.49
2024-04-06T20:11:44.421Z,22.47
2024-04-06T20:13:24.207Z,22.44
2024-04-06T20:15:03.968Z,22.39
2024-04-06T20:16:43.732Z,22.37
2024-04-06T20:18:23.509Z,22.33
2024-04-06T20:20:03.271Z,22.31
2024-04-06T20:21:43.040Z,22.28
2024-04-06T20:23:22.799Z,22.25
2024-04-06T20:25:02.581Z,22.2
2024-04-06T20:26:42.341Z,22.17
2024-04-06T20:28:22.100Z,22.14
2024-04-06T20:30:01.885Z,22.11
2024-04-06T20:31:41.633Z,22.09
2024-04-06T20:33:21.409Z,22.04
2024-04-06T20:36:40.945Z,21.99
2024-04-06T20:38:20.709Z,21.97
2024-04-06T20:40:00.462Z,21.92
2024-04-06T20:41:40.258Z,21.89
2024-04-06T20:43:20.026Z,21.88
2024-04-06T20:44:59.777Z,21.84
2024-04-06T20:46:39.541Z,21.82
2024-04-06T20:48:19.320Z,21.78
2024-04-06T20:49:59.096Z,21.75
2024-04-06T20:51:38.848Z,21.73
2024-04-06T20:53:18.624Z,21.7
2024-04-06T20:56:38.161Z,21.66
2024-04-06T20:58:17.916Z,21.63
2024-04-06T20:59:57.683Z,21.59
2024-04-06T21:01:37.476Z,21.57
2024-04-06T21:03:17.212Z,21.54
2024-04-06T21:04:56.994Z,21.51
2024-04-06T21:06:36.756Z,21.49
2024-04-06T21:08:16.535Z,21.47
2024-04-06T21:09:56.297Z,21.45
2024-04-06T21:11:36.058Z,21.41
2024-04-06T21:13:15.824Z,21.41
2024-04-06T21:14:55.600Z,21.37
2024-04-06T21:16:35.408Z,21.34
2024-04-06T21:18:15.141Z,21.33
2024-04-06T21:19:54.910Z,21.29
2024-04-06T21:21:34.672Z,21.27
2024-04-06T21:23:14.446Z,21.25
2024-04-06T21:24:54.206Z,21.21
2024-04-06T21:26:33.963Z,21.19
2024-04-06T21:28:13.812Z,21.18
2024-04-06T21:29:53.503Z,21.14
2024-04-06T21:31:33.276Z,21.13
2024-04-06T21:33:13.050Z,21.09
2024-04-06T21:34:52.800Z,21.07
2024-04-06T21:36:32.580Z,21.05
2024-04-06T21:38:12.343Z,21.03
2024-04-06T21:39:52.118Z,21.02
2024-04-06T21:41:31.882Z,20.99
2024-04-06T21:43:11.678Z,20.97
2024-04-06T21:44:51.409Z,20.94
2024-04-06T21:46:31.188Z,20.91